Time;durP1;ratioP1;P1;durP2;ratioP2;P2;SDS_P1;SDS_P2;PMS_P1;PMS_P2;Temp;Humidity;BMP_temperature;BMP_pressure;BME280_temperature;BME280_humidity;BME280_pressure;Samples;Min_cycle;Max_cycle;Signal;HPM_P1;HPM_P2
2022/08/19 00:01:50;;;;;;;7.03;3.72;;;17.00;99.90;;;;;;4962808;28;19918;-70
2022/08/19 00:04:18;;;;;;;4.88;3.38;;;17.00;99.90;;;;;;4981908;28;20045;-70
2022/08/19 00:06:46;;;;;;;6.82;3.55;;;16.90;99.90;;;;;;4964188;28;20085;-70
2022/08/19 00:09:15;;;;;;;6.30;3.22;;;16.80;99.90;;;;;;4963140;28;20046;-71
2022/08/19 00:11:44;;;;;;;6.07;3.47;;;16.90;99.90;;;;;;4963290;28;20578;-71
2022/08/19 00:14:11;;;;;;;;;;;16.80;99.90;;;;;;4966770;28;20042;-70
2022/08/19 00:16:38;;;;;;;6.22;3.67;;;16.80;99.90;;;;;;4942920;28;19932;-71
2022/08/19 00:19:05;;;;;;;5.45;3.42;;;16.70;99.90;;;;;;4975119;28;20408;-70
2022/08/19 00:21:31;;;;;;;6.57;4.25;;;16.70;99.90;;;;;;4963232;28;20142;-70
2022/08/19 00:24:00;;;;;;;10.20;4.30;;;16.70;99.90;;;;;;4980835;28;20552;-70
2022/08/19 00:26:28;;;;;;;6.65;3.83;;;16.70;99.90;;;;;;4982498;28;20042;-71
2022/08/19 00:28:55;;;;;;;10.43;4.43;;;16.70;99.90;;;;;;4977913;28;20077;-70
2022/08/19 00:31:21;;;;;;;7.25;4.10;;;16.60;99.90;;;;;;4976756;28;20043;-71
2022/08/19 00:33:50;;;;;;;;;;;16.60;99.90;;;;;;4978430;28;20547;-72
2022/08/19 00:36:16;;;;;;;6.50;3.70;;;16.60;99.90;;;;;;4979973;28;19961;-71
2022/08/19 00:38:43;;;;;;;6.60;4.40;;;16.50;99.90;;;;;;4983329;28;20100;-71
2022/08/19 00:41:12;;;;;;;6.07;3.75;;;16.60;99.90;;;;;;4964053;28;20047;-70
2022/08/19 00:43:38;;;;;;;11.10;4.78;;;16.50;99.90;;;;;;4982651;28;20040;-71
2022/08/19 00:46:04;;;;;;;6.47;3.60;;;16.50;99.90;;;;;;4981658;28;20117;-70
2022/08/19 00:48:51;;;;;;;7.85;4.13;;;16.50;99.90;;;;;;4956246;28;20057;-70
2022/08/19 00:51:17;;;;;;;6.05;3.88;;;16.40;99.90;;;;;;4961678;28;20121;-71
2022/08/19 00:53:43;;;;;;;6.55;4.65;;;16.50;99.90;;;;;;4984258;28;20941;-71
2022/08/19 00:56:10;;;;;;;8.98;4.70;;;16.40;99.90;;;;;;4954005;28;20497;-70
2022/08/19 00:58:39;;;;;;;10.80;4.88;;;16.40;99.90;;;;;;4978956;28;20311;-71
2022/08/19 01:01:08;;;;;;;10.63;4.70;;;16.40;99.90;;;;;;4962861;28;20215;-71
2022/08/19 01:03:39;;;;;;;7.93;5.07;;;16.30;99.90;;;;;;4978608;28;20051;-71
2022/08/19 01:06:05;;;;;;;9.15;5.35;;;16.40;99.90;;;;;;4965684;28;20039;-70
2022/08/19 01:08:31;;;;;;;8.15;5.38;;;16.30;99.90;;;;;;4982684;28;20048;-71
2022/08/19 01:10:58;;;;;;;6.95;4.15;;;16.30;99.90;;;;;;4959340;28;20050;-70
2022/08/19 01:13:28;;;;;;;7.18;4.50;;;16.30;99.90;;;;;;4977800;28;20050;-71
2022/08/19 01:16:02;;;;;;;6.78;4.15;;;16.30;99.90;;;;;;4978751;28;20050;-71
2022/08/19 01:18:29;;;;;;;6.82;4.30;;;16.30;99.90;;;;;;4965003;28;20078;-71
2022/08/19 01:20:58;;;;;;;8.02;4.20;;;16.30;99.90;;;;;;4976554;28;20038;-71
2022/08/19 01:23:42;;;;;;;6.43;4.28;;;16.30;99.90;;;;;;4978970;28;20289;-71
2022/08/19 01:26:10;;;;;;;5.43;3.80;;;16.20;99.90;;;;;;4975037;28;20117;-71
2022/08/19 01:28:39;;;;;;;7.20;4.22;;;16.30;99.90;;;;;;4981946;28;21344;-70
2022/08/19 01:31:05;;;;;;;7.05;3.83;;;16.30;99.90;;;;;;4960434;28;20046;-70
2022/08/19 01:33:34;;;;;;;6.95;3.90;;;16.30;99.90;;;;;;4986999;28;20129;-71
2022/08/19 01:36:13;;;;;;;7.82;4.30;;;16.30;99.90;;;;;;4961557;28;20513;-71
2022/08/19 01:38:43;;;;;;;6.85;3.70;;;16.20;99.90;;;;;;4993720;28;20412;-70
2022/08/19 01:41:10;;;;;;;9.10;4.65;;;16.30;99.90;;;;;;4962357;28;20050;-71
2022/08/19 01:43:36;;;;;;;9.43;3.97;;;16.30;99.90;;;;;;4978150;28;20042;-70
2022/08/19 01:46:03;;;;;;;9.35;4.25;;;16.20;99.90;;;;;;4964025;28;20046;-70
2022/08/19 01:48:37;;;;;;;7.75;4.32;;;16.20;99.90;;;;;;4961731;28;20129;-70
2022/08/19 01:51:03;;;;;;;5.97;4.20;;;16.20;99.90;;;;;;4978892;28;20429;-70
2022/08/19 01:53:29;;;;;;;7.10;4.38;;;16.20;99.90;;;;;;4951949;28;20049;-70
2022/08/19 01:55:55;;;;;;;6.70;4.43;;;16.20;99.90;;;;;;4968733;28;20049;-71
2022/08/19 01:58:29;;;;;;;8.30;4.43;;;16.20;99.90;;;;;;4983431;28;20528;-70
2022/08/19 02:00:54;;;;;;;9.85;5.03;;;16.10;99.90;;;;;;4978543;28;20046;-71
2022/08/19 02:03:20;;;;;;;9.07;4.78;;;16.10;99.90;;;;;;4966919;28;20564;-70
2022/08/19 02:05:46;;;;;;;10.15;5.30;;;16.10;99.90;;;;;;4960264;28;20065;-70
2022/08/19 02:08:12;;;;;;;6.78;4.43;;;16.10;99.90;;;;;;4970158;28;20038;-70
2022/08/19 02:10:41;;;;;;;8.57;4.70;;;16.10;99.90;;;;;;4968484;28;20219;-70
2022/08/19 02:13:07;;;;;;;8.10;5.53;;;16.10;99.90;;;;;;4968608;28;20106;-70
2022/08/19 02:15:32;;;;;;;10.27;4.82;;;16.10;99.90;;;;;;4959173;28;20034;-70
2022/08/19 02:18:00;;;;;;;10.10;5.70;;;16.10;99.90;;;;;;4966416;28;20057;-70
2022/08/19 02:20:29;;;;;;;8.32;4.70;;;16.10;99.90;;;;;;4958059;28;20073;-70
2022/08/19 02:22:54;;;;;;;10.40;4.75;;;16.00;99.90;;;;;;4985301;28;20555;-70
2022/08/19 02:25:20;;;;;;;8.02;4.75;;;16.10;99.90;;;;;;4984252;28;20042;-70
2022/08/19 02:27:46;;;;;;;12.68;5.38;;;16.10;99.90;;;;;;4960492;28;20069;-70
2022/08/19 02:30:15;;;;;;;10.48;5.00;;;16.10;99.90;;;;;;4963913;28;20038;-70
2022/08/19 02:32:41;;;;;;;8.15;4.20;;;16.10;99.90;;;;;;4983402;28;20085;-70
2022/08/19 02:35:08;;;;;;;7.85;4.20;;;16.00;99.90;;;;;;4981436;28;20152;-70
2022/08/19 02:40:19;;;;;;;10.20;5.55;;;16.10;99.90;;;;;;4985655;28;20027;-70
2022/08/19 02:42:45;;;;;;;10.82;5.00;;;16.10;99.90;;;;;;4978693;28;20042;-70
2022/08/19 02:45:11;;;;;;;;;;;16.10;99.90;;;;;;4969169;28;20129;-70
2022/08/19 02:47:40;;;;;;;11.73;4.63;;;16.00;99.90;;;;;;4966252;28;20195;-70
2022/08/19 02:50:07;;;;;;;7.80;4.57;;;16.10;99.90;;;;;;4967795;28;20184;-70
2022/08/19 02:52:33;;;;;;;;;;;16.10;99.90;;;;;;4983835;28;20125;-70
2022/08/19 02:54:59;;;;;;;11.18;4.93;;;16.00;99.90;;;;;;4967073;28;20244;-70
2022/08/19 02:57:27;;;;;;;9.77;4.20;;;16.00;99.90;;;;;;4983572;28;20045;-70
2022/08/19 02:59:53;;;;;;;8.45;4.68;;;16.00;99.90;;;;;;4959156;28;20065;-70
2022/08/19 03:02:19;;;;;;;;;;;16.00;99.90;;;;;;4979634;28;20053;-70
2022/08/19 03:04:45;;;;;;;8.45;4.55;;;16.00;99.90;;;;;;4985022;28;19926;-70
2022/08/19 03:07:14;;;;;;;8.15;4.78;;;16.00;99.90;;;;;;4979712;28;20054;-70
2022/08/19 03:09:41;;;;;;;9.40;4.97;;;16.00;99.90;;;;;;4966158;28;20042;-70
2022/08/19 03:12:07;;;;;;;7.57;4.32;;;16.00;99.90;;;;;;4981135;28;20050;-70
2022/08/19 03:14:33;;;;;;;9.27;4.38;;;16.00;99.90;;;;;;4978072;28;20447;-70
2022/08/19 03:16:59;;;;;;;6.47;3.83;;;16.00;99.90;;;;;;4982153;28;20038;-70
2022/08/19 03:19:25;;;;;;;6.43;4.13;;;15.90;99.90;;;;;;4983502;28;20137;-70
2022/08/19 03:21:52;;;;;;;9.18;4.60;;;16.00;99.90;;;;;;4980912;28;20134;-70
2022/08/19 03:24:18;;;;;;;7.75;4.85;;;16.00;99.90;;;;;;4965551;28;20520;-70
2022/08/19 03:26:47;;;;;;;7.88;4.93;;;15.90;99.90;;;;;;4982820;28;20290;-70
2022/08/19 03:29:14;;;;;;;8.93;4.55;;;15.90;99.90;;;;;;4979516;28;20050;-70
2022/08/19 03:31:42;;;;;;;7.97;4.20;;;15.90;99.90;;;;;;4968981;28;20535;-70
2022/08/19 03:34:11;;;;;;;7.75;4.32;;;15.90;99.90;;;;;;4984019;28;20034;-70
2022/08/19 03:36:37;;;;;;;7.93;4.65;;;15.90;99.90;;;;;;4979130;28;20046;-70
2022/08/19 03:39:08;;;;;;;6.28;3.80;;;15.90;99.90;;;;;;4981297;28;20105;-70
2022/08/19 03:41:44;;;;;;;9.73;4.43;;;15.90;99.90;;;;;;4983635;28;20077;-70
2022/08/19 03:44:10;;;;;;;8.73;4.63;;;15.90;99.90;;;;;;4961591;28;20042;-70
2022/08/19 03:46:36;;;;;;;7.10;4.43;;;15.90;99.90;;;;;;4981569;28;20389;-70
2022/08/19 03:49:06;;;;;;;8.32;4.75;;;15.80;99.90;;;;;;4967575;28;20046;-70
2022/08/19 03:51:37;;;;;;;8.15;4.30;;;15.90;99.90;;;;;;4961362;28;20057;-70
2022/08/19 03:54:06;;;;;;;8.35;4.50;;;15.90;99.90;;;;;;5010015;23;20201;-72
2022/08/19 03:56:34;;;;;;;7.68;4.65;;;15.90;99.90;;;;;;4994801;28;20127;-71
2022/08/19 03:59:00;;;;;;;7.63;4.22;;;15.80;99.90;;;;;;5013941;28;20042;-71
2022/08/19 04:01:28;;;;;;;6.05;4.20;;;15.80;99.90;;;;;;5014246;28;20409;-71
2022/08/19 04:03:55;;;;;;;8.18;4.65;;;15.80;99.90;;;;;;5001906;28;20279;-71
2022/08/19 04:06:24;;;;;;;8.70;4.57;;;15.80;99.90;;;;;;5016791;28;20128;-71
2022/08/19 04:08:53;;;;;;;11.38;4.82;;;15.80;99.90;;;;;;5014458;28;20034;-71
2022/08/19 04:11:23;;;;;;;9.18;4.88;;;15.80;99.90;;;;;;5016517;28;20361;-71
2022/08/19 04:13:51;;;;;;;7.78;4.65;;;15.80;99.90;;;;;;5001478;28;20045;-71
2022/08/19 04:16:19;;;;;;;6.65;4.28;;;15.80;99.90;;;;;;5013154;28;20456;-71
2022/08/19 04:18:46;;;;;;;7.20;4.72;;;15.80;99.90;;;;;;5003221;28;20127;-71
2022/08/19 04:21:18;;;;;;;9.40;4.63;;;15.80;99.90;;;;;;5008523;28;20060;-71
2022/08/19 04:23:44;;;;;;;6.65;4.28;;;15.80;99.90;;;;;;5003440;28;20696;-71
2022/08/19 04:26:19;;;;;;;7.68;4.50;;;15.80;99.90;;;;;;5021227;28;20176;-71
2022/08/19 04:28:48;;;;;;;9.40;5.00;;;15.80;99.90;;;;;;5024278;28;20037;-71
2022/08/19 04:31:21;;;;;;;8.90;4.63;;;15.70;99.90;;;;;;5024717;28;20038;-71
2022/08/19 04:33:46;;;;;;;9.15;4.70;;;15.90;99.90;;;;;;5003300;28;20140;-71
2022/08/19 04:36:20;;;;;;;8.55;4.72;;;15.80;99.90;;;;;;5018560;28;20128;-71
2022/08/19 04:38:47;;;;;;;7.60;4.68;;;15.90;99.90;;;;;;5016770;28;20045;-71
2022/08/19 04:43:59;;;;;;;9.35;4.95;;;15.90;99.90;;;;;;4993749;28;20709;-71
2022/08/19 04:46:25;;;;;;;9.32;5.28;;;15.90;99.90;;;;;;5015551;28;20177;-72
2022/08/19 04:48:52;;;;;;;8.40;4.95;;;15.90;99.90;;;;;;5008392;28;20040;-71
2022/08/19 04:51:18;;;;;;;9.55;4.97;;;15.90;99.90;;;;;;5020558;28;20090;-71
2022/08/19 04:53:43;;;;;;;7.70;4.63;;;15.90;99.90;;;;;;4965340;28;1083071;-71
2022/08/19 04:56:16;;;;;;;12.50;4.80;;;15.90;99.90;;;;;;5019534;28;20086;-71
2022/08/19 04:58:43;;;;;;;9.82;5.10;;;15.90;99.90;;;;;;5002651;28;20052;-71
2022/08/19 05:01:17;;;;;;;10.70;5.32;;;15.90;99.90;;;;;;5023546;28;20132;-71
2022/08/19 05:03:42;;;;;;;10.38;5.22;;;15.90;99.90;;;;;;5020530;28;20072;-71
2022/08/19 05:06:11;;;;;;;8.93;5.05;;;15.90;99.90;;;;;;5011487;28;20475;-71
2022/08/19 05:08:41;;;;;;;9.45;5.30;;;16.00;99.90;;;;;;5007291;28;20149;-71
2022/08/19 05:11:16;;;;;;;9.27;5.38;;;16.00;99.90;;;;;;5023766;28;20045;-71
2022/08/19 05:13:43;;;;;;;10.27;5.85;;;16.00;99.90;;;;;;5020644;28;20171;-71
2022/08/19 05:16:10;;;;;;;9.80;5.55;;;16.00;99.90;;;;;;4988388;28;20098;-71
2022/08/19 05:24:09;;;;;;;12.07;5.63;;;16.10;99.90;;;;;;5027738;28;20034;-71
2022/08/19 05:26:41;;;;;;;10.15;5.68;;;16.20;99.90;;;;;;5009746;28;20037;-72
2022/08/19 05:29:08;;;;;;;10.40;5.60;;;16.20;99.90;;;;;;4996990;28;20084;-71
2022/08/19 05:31:35;;;;;;;10.18;4.93;;;16.20;99.90;;;;;;5011041;28;20073;-72
2022/08/19 05:34:04;;;;;;;11.00;5.30;;;16.20;99.90;;;;;;4989632;28;20228;-72
2022/08/19 05:36:35;;;;;;;9.50;5.57;;;16.10;99.90;;;;;;5017511;28;20104;-71
2022/08/19 05:39:04;;;;;;;11.25;5.20;;;16.20;99.90;;;;;;5008446;28;20029;-71
2022/08/19 05:41:30;;;;;;;11.13;5.47;;;16.30;99.90;;;;;;5015129;28;20049;-71
2022/08/19 05:43:56;;;;;;;;;;;16.30;99.90;;;;;;5020285;28;20136;-71
2022/08/19 05:46:22;;;;;;;10.43;6.03;;;16.30;99.90;;;;;;5006064;28;20340;-71
2022/08/19 05:48:51;;;;;;;8.73;5.60;;;16.30;99.90;;;;;;5020960;28;20041;-71
2022/08/19 05:51:17;;;;;;;9.20;5.30;;;16.30;99.90;;;;;;5004027;28;20102;-72
2022/08/19 05:53:44;;;;;;;9.98;5.80;;;16.30;99.90;;;;;;5009612;28;20560;-71
2022/08/19 05:56:15;;;;;;;12.57;5.55;;;16.40;99.90;;;;;;5018900;28;20477;-71
2022/08/19 05:58:43;;;;;;;10.00;5.35;;;16.40;99.90;;;;;;5016215;28;20052;-71
2022/08/19 06:01:17;;;;;;;7.60;4.70;;;16.40;99.90;;;;;;5020738;28;20045;-71
2022/08/19 06:03:47;;;;;;;10.82;5.18;;;16.50;99.90;;;;;;5015376;28;20116;-71
2022/08/19 06:06:14;;;;;;;9.57;5.30;;;16.50;99.90;;;;;;4996400;28;20091;-71
2022/08/19 06:08:42;;;;;;;11.55;5.93;;;16.50;99.90;;;;;;5016171;28;20041;-71
2022/08/19 06:11:19;;;;;;;9.48;5.50;;;16.60;99.90;;;;;;5015566;28;20037;-71
2022/08/19 06:13:49;;;;;;;13.63;5.50;;;16.60;99.90;;;;;;5019152;28;20049;-71
2022/08/19 06:16:24;;;;;;;9.27;5.68;;;16.70;99.90;;;;;;4994840;28;20037;-71
2022/08/19 06:18:51;;;;;;;9.77;5.85;;;16.70;99.90;;;;;;5018834;28;20304;-71
2022/08/19 06:21:19;;;;;;;8.18;5.10;;;16.80;99.90;;;;;;5022846;28;20034;-71
2022/08/19 06:23:47;;;;;;;12.80;6.97;;;16.80;99.90;;;;;;5005563;28;20121;-71
2022/08/19 06:26:13;;;;;;;12.35;6.35;;;16.90;99.90;;;;;;5017259;28;20071;-71
2022/08/19 06:28:42;;;;;;;11.50;5.65;;;17.00;99.90;;;;;;5021685;28;20041;-71
2022/08/19 06:31:13;;;;;;;10.98;6.43;;;17.10;99.90;;;;;;5022214;28;20115;-71
2022/08/19 06:33:41;;;;;;;9.60;6.15;;;17.20;99.90;;;;;;5023870;28;20159;-71
2022/08/19 06:36:08;;;;;;;10.73;6.63;;;17.20;99.90;;;;;;5006871;28;20095;-72
2022/08/19 06:38:34;;;;;;;13.35;5.93;;;17.30;99.90;;;;;;4994503;28;20172;-71
2022/08/19 06:41:01;;;;;;;13.18;6.60;;;17.30;99.90;;;;;;5001991;28;20128;-72
2022/08/19 06:43:27;;;;;;;11.23;5.65;;;17.40;99.90;;;;;;5023255;28;20093;-71
2022/08/19 06:45:52;;;;;;;10.00;6.50;;;17.50;99.90;;;;;;5019208;28;20045;-73
2022/08/19 06:48:18;;;;;;;12.20;6.25;;;17.60;99.90;;;;;;5011046;28;20041;-73
2022/08/19 06:50:44;;;;;;;11.13;5.82;;;17.60;99.90;;;;;;5005205;28;20041;-74
2022/08/19 06:53:09;;;;;;;11.05;7.05;;;17.70;99.90;;;;;;5002608;28;20213;-73
2022/08/19 06:55:36;;;;;;;11.15;6.65;;;17.70;99.90;;;;;;5002949;28;20080;-73
2022/08/19 06:58:03;;;;;;;15.25;6.50;;;17.90;99.90;;;;;;5026930;28;20057;-73
2022/08/19 07:00:29;;;;;;;9.73;6.20;;;18.00;99.90;;;;;;5021666;28;20045;-74
2022/08/19 07:02:54;;;;;;;11.13;6.95;;;18.00;99.90;;;;;;5005295;28;20132;-74
2022/08/19 07:05:20;;;;;;;12.68;6.65;;;18.10;99.90;;;;;;5032113;28;20139;-74
2022/08/19 07:07:46;;;;;;;11.10;6.53;;;18.10;99.90;;;;;;5010814;28;20072;-76
2022/08/19 07:10:12;;;;;;;12.75;7.28;;;18.20;99.90;;;;;;5012351;28;20484;-71
2022/08/19 07:12:38;;;;;;;13.25;6.07;;;18.30;99.90;;;;;;5026378;28;20037;-73
2022/08/19 07:15:05;;;;;;;11.35;6.55;;;18.40;99.90;;;;;;5020993;28;20120;-72
2022/08/19 07:17:32;;;;;;;12.18;6.70;;;18.40;99.90;;;;;;5022566;28;20157;-71
2022/08/19 07:19:58;;;;;;;12.98;6.90;;;18.50;99.90;;;;;;4993524;28;20137;-74
2022/08/19 07:22:24;;;;;;;11.55;6.07;;;18.60;99.90;;;;;;5012126;28;20048;-73
2022/08/19 07:24:50;;;;;;;13.00;7.32;;;18.60;99.90;;;;;;5004262;28;20034;-71
2022/08/19 07:27:16;;;;;;;9.73;6.38;;;18.70;99.90;;;;;;5029526;28;20128;-74
2022/08/19 07:29:42;;;;;;;11.00;6.93;;;18.80;99.90;;;;;;4999269;28;20387;-70
2022/08/19 07:32:08;;;;;;;10.35;6.97;;;18.80;99.90;;;;;;5005498;28;20053;-70
2022/08/19 07:34:37;;;;;;;12.68;6.50;;;18.90;99.90;;;;;;5016006;28;20098;-70
2022/08/19 07:37:06;;;;;;;10.18;6.28;;;18.90;99.90;;;;;;5004738;28;20037;-70
2022/08/19 07:39:34;;;;;;;11.75;7.40;;;19.00;99.90;;;;;;5034351;28;20136;-70
2022/08/19 07:42:04;;;;;;;12.05;6.40;;;19.00;99.90;;;;;;5017496;28;20045;-70
2022/08/19 07:44:29;;;;;;;10.40;6.53;;;19.10;99.90;;;;;;5028983;28;20406;-70
2022/08/19 07:46:57;;;;;;;12.77;7.13;;;19.20;99.90;;;;;;5010071;28;20052;-70
2022/08/19 07:49:23;;;;;;;13.23;6.75;;;19.30;99.90;;;;;;5004060;28;20371;-70
2022/08/19 07:52:03;;;;;;;14.18;7.05;;;19.40;99.90;;;;;;5029352;28;20403;-70
2022/08/19 07:54:34;;;;;;;12.18;7.18;;;19.50;99.90;;;;;;5026989;28;20046;-70
2022/08/19 07:57:00;;;;;;;13.30;7.95;;;19.50;99.90;;;;;;5007778;28;20041;-70
2022/08/19 07:59:28;;;;;;;13.23;7.15;;;19.60;99.90;;;;;;5004910;28;20041;-70
2022/08/19 08:01:54;;;;;;;14.73;7.85;;;19.70;99.90;;;;;;5007273;28;20056;-71
2022/08/19 08:09:50;;;;;;;12.85;8.30;;;19.90;99.90;;;;;;5032623;28;20049;-70
2022/08/19 08:12:28;;;;;;;;;;;20.00;99.90;;;;;;4998524;28;20644;-70
2022/08/19 08:14:56;;;;;;;;;;;20.10;99.90;;;;;;5025971;28;19917;-70
2022/08/19 08:17:25;;;;;;;13.15;8.23;;;20.20;99.90;;;;;;5027469;28;20181;-77
2022/08/19 08:19:51;;;;;;;15.05;8.50;;;20.30;99.90;;;;;;5025109;28;20564;-71
2022/08/19 08:25:11;;;;;;;11.90;8.25;;;20.40;99.90;;;;;;4996248;28;20049;-72
2022/08/19 08:27:39;;;;;;;14.50;9.07;;;20.50;99.90;;;;;;5003572;28;20055;-72
2022/08/19 08:30:09;;;;;;;14.20;8.88;;;20.60;99.90;;;;;;5003221;28;20085;-72
2022/08/19 08:32:36;;;;;;;14.88;9.43;;;20.70;99.90;;;;;;5026953;28;20042;-72
2022/08/19 08:35:03;;;;;;;14.48;9.10;;;20.80;99.90;;;;;;5024297;28;20111;-72
2022/08/19 08:37:29;;;;;;;13.52;8.27;;;20.80;99.90;;;;;;5021769;28;20117;-72
2022/08/19 08:39:55;;;;;;;11.82;8.10;;;20.90;99.90;;;;;;5018079;28;20227;-71
2022/08/19 08:42:30;;;;;;;15.32;9.32;;;20.90;99.90;;;;;;5011098;28;20430;-71
2022/08/19 08:45:03;;;;;;;13.68;8.13;;;21.00;99.90;;;;;;5015117;28;20044;-72
2022/08/19 08:47:34;;;;;;;12.88;8.30;;;21.10;99.90;;;;;;5027391;28;20044;-72
2022/08/19 08:50:10;;;;;;;15.27;9.32;;;21.20;99.90;;;;;;5000345;28;20542;-72
2022/08/19 08:52:42;;;;;;;12.38;8.45;;;21.30;99.90;;;;;;5019630;28;20076;-72
2022/08/19 08:55:20;;;;;;;14.98;9.75;;;21.40;99.90;;;;;;5014115;28;20503;-72
2022/08/19 08:57:54;;;;;;;16.42;10.25;;;21.50;99.90;;;;;;5003006;28;20519;-72
2022/08/19 09:00:26;;;;;;;15.60;10.80;;;21.60;99.90;;;;;;5022848;28;20622;-72
2022/08/19 09:02:53;;;;;;;16.67;9.60;;;21.70;99.90;;;;;;5018086;28;20475;-72
2022/08/19 09:05:21;;;;;;;16.77;10.13;;;21.70;99.90;;;;;;5022908;28;20045;-77
2022/08/19 09:08:08;;;;;;;16.40;9.60;;;21.70;99.90;;;;;;5002773;28;20099;-71
2022/08/19 09:10:37;;;;;;;16.45;10.52;;;21.90;99.90;;;;;;5020112;28;20037;-75
2022/08/19 09:13:40;;;;;;;16.13;10.77;;;22.00;99.90;;;;;;5001122;28;20475;-76
2022/08/19 09:16:21;;;;;;;16.92;11.38;;;22.00;99.90;;;;;;4998239;28;20041;-76
2022/08/19 09:18:57;;;;;;;19.15;11.75;;;22.10;99.90;;;;;;5020667;28;20044;-71
2022/08/19 09:21:25;;;;;;;18.45;12.15;;;22.20;99.90;;;;;;5020952;28;20103;-71
2022/08/19 09:23:51;;;;;;;17.15;10.57;;;22.30;99.90;;;;;;5025817;28;20394;-71
2022/08/19 09:26:20;;;;;;;18.58;12.13;;;22.30;99.90;;;;;;5006258;28;20084;-71
2022/08/19 09:28:48;;;;;;;19.35;11.50;;;22.40;99.90;;;;;;5021651;28;20045;-71
2022/08/19 09:31:16;;;;;;;20.63;12.15;;;22.40;99.90;;;;;;5022092;28;20064;-71
2022/08/19 09:33:43;;;;;;;18.27;11.15;;;22.60;99.90;;;;;;5022807;28;20042;-71
2022/08/19 09:36:12;;;;;;;15.93;10.77;;;22.70;99.90;;;;;;5005044;28;20111;-71
2022/08/19 09:38:40;;;;;;;17.27;11.07;;;22.80;99.90;;;;;;5024679;28;20073;-71
2022/08/19 09:41:08;;;;;;;17.67;10.45;;;22.90;99.90;;;;;;5006923;28;20082;-71
2022/08/19 09:43:37;;;;;;;14.85;10.32;;;23.00;99.90;;;;;;5021852;28;20077;-71
2022/08/19 09:46:06;;;;;;;;;;;23.10;99.90;;;;;;5004664;28;20076;-71
2022/08/19 09:48:32;;;;;;;14.90;10.57;;;23.20;99.90;;;;;;5019925;28;19917;-72
2022/08/19 09:51:15;;;;;;;18.05;11.07;;;23.30;99.90;;;;;;5018190;28;20122;-71
2022/08/19 09:53:42;;;;;;;17.17;11.20;;;23.40;99.90;;;;;;5021306;23;20049;-71
2022/08/19 09:56:09;;;;;;;17.77;10.90;;;23.50;99.90;;;;;;4984330;28;20069;-70
2022/08/19 09:58:35;;;;;;;16.98;11.38;;;23.50;99.90;;;;;;5003627;28;20050;-71
2022/08/19 10:01:02;;;;;;;14.52;9.07;;;23.50;99.90;;;;;;5021737;28;20140;-71
2022/08/19 10:03:30;;;;;;;15.18;9.32;;;23.60;99.90;;;;;;5006244;28;20049;-71
2022/08/19 10:05:57;;;;;;;16.83;10.88;;;23.70;99.90;;;;;;5018056;28;20499;-71
2022/08/19 10:08:26;;;;;;;14.15;9.80;;;23.60;99.90;;;;;;5007542;28;20137;-71
2022/08/19 10:10:52;;;;;;;13.85;7.70;;;23.70;99.90;;;;;;4998642;28;20048;-71
2022/08/19 10:13:25;;;;;;;11.35;7.57;;;23.80;99.90;;;;;;5008134;28;20091;-71
2022/08/19 10:15:56;;;;;;;11.82;6.80;;;23.90;99.90;;;;;;5006896;28;20349;-71
2022/08/19 10:18:23;;;;;;;11.98;6.80;;;24.00;99.90;;;;;;5026087;28;20041;-71
2022/08/19 10:20:50;;;;;;;11.55;7.60;;;24.10;99.90;;;;;;5006181;28;20170;-71
2022/08/19 10:23:17;;;;;;;9.65;6.65;;;24.20;99.90;;;;;;5008409;28;20056;-71
2022/08/19 10:25:43;;;;;;;9.95;6.20;;;24.30;99.90;;;;;;5023434;28;20085;-71
2022/08/19 10:28:11;;;;;;;9.85;6.55;;;24.40;99.90;;;;;;5029521;28;20156;-71
2022/08/19 10:30:38;;;;;;;11.55;6.68;;;24.50;99.90;;;;;;5029492;28;20119;-71
2022/08/19 10:33:04;;;;;;;10.38;6.60;;;24.60;99.90;;;;;;5019981;28;20040;-71
2022/08/19 10:35:30;;;;;;;9.80;6.85;;;24.80;99.90;;;;;;5003600;28;20038;-71
2022/08/19 10:37:59;;;;;;;12.88;8.15;;;24.80;99.90;;;;;;5022323;28;20056;-71
2022/08/19 10:40:26;;;;;;;11.95;7.85;;;24.90;99.90;;;;;;4997296;28;20451;-71
2022/08/19 10:42:53;;;;;;;12.90;7.57;;;24.90;99.90;;;;;;5022262;28;20220;-71
2022/08/19 10:45:25;;;;;;;12.27;7.70;;;24.90;99.90;;;;;;5013173;28;20041;-72
2022/08/19 10:47:53;;;;;;;12.05;7.28;;;25.00;99.90;;;;;;5014257;28;20037;-71
2022/08/19 10:53:11;;;;;;;12.02;6.78;;;25.10;99.90;;;;;;5003809;28;20037;-71
2022/08/19 10:58:23;;;;;;;12.60;7.47;;;25.20;99.90;;;;;;5015497;28;20053;-72
2022/08/19 11:00:57;;;;;;;10.88;7.15;;;25.20;99.90;;;;;;5006873;28;20056;-71
2022/08/19 11:03:24;;;;;;;11.27;7.45;;;25.20;99.90;;;;;;5010480;28;20046;-71
2022/08/19 11:06:05;;;;;;;11.32;7.13;;;25.10;99.90;;;;;;5029556;28;20437;-71
2022/08/19 11:08:31;;;;;;;11.40;6.65;;;25.10;99.90;;;;;;5007463;28;20407;-71
2022/08/19 11:11:03;;;;;;;8.82;6.40;;;25.20;99.90;;;;;;5015456;28;20037;-71
2022/08/19 11:13:37;;;;;;;10.52;7.20;;;25.20;99.90;;;;;;5010265;28;20076;-71
2022/08/19 11:16:14;;;;;;;13.70;7.03;;;25.10;99.90;;;;;;5005227;28;20072;-72
2022/08/19 11:18:46;;;;;;;8.98;5.97;;;25.00;99.90;;;;;;5014519;28;20709;-71
2022/08/19 11:21:33;;;;;;;8.93;6.30;;;25.00;99.90;;;;;;5027866;28;20033;-71
2022/08/19 11:24:02;;;;;;;10.82;7.15;;;24.90;99.90;;;;;;5030478;28;20042;-71
2022/08/19 11:26:30;;;;;;;11.77;7.22;;;24.80;99.90;;;;;;4997959;28;20045;-71
2022/08/19 11:28:57;;;;;;;14.23;8.18;;;24.70;99.90;;;;;;5020240;28;20077;-71
2022/08/19 11:31:31;;;;;;;12.35;7.25;;;24.50;99.90;;;;;;5027481;28;20029;-71
2022/08/19 11:33:59;;;;;;;9.55;6.88;;;24.50;99.90;;;;;;5025734;28;20566;-71
2022/08/19 11:36:25;;;;;;;10.98;7.05;;;24.30;99.90;;;;;;5026921;28;20109;-71
2022/08/19 11:38:51;;;;;;;13.45;7.82;;;24.30;99.90;;;;;;5007826;28;20272;-71
2022/08/19 11:41:19;;;;;;;16.00;7.72;;;24.30;99.90;;;;;;5025434;28;20293;-71
2022/08/19 11:43:45;;;;;;;12.82;7.35;;;24.20;99.90;;;;;;5025114;28;20352;-71
2022/08/19 11:46:13;;;;;;;14.10;8.30;;;24.10;99.90;;;;;;5025641;28;20044;-71
2022/08/19 11:48:40;;;;;;;14.50;8.05;;;24.10;99.90;;;;;;5025434;28;20098;-71
2022/08/19 11:51:12;;;;;;;13.85;8.25;;;24.00;99.90;;;;;;5023196;28;20034;-71
2022/08/19 11:53:38;;;;;;;13.15;8.52;;;24.00;99.90;;;;;;5011257;28;20124;-71
2022/08/19 11:56:08;;;;;;;15.77;9.30;;;24.00;99.90;;;;;;5025625;28;20049;-71
2022/08/19 11:58:34;;;;;;;14.32;8.18;;;24.10;99.90;;;;;;5023878;28;20167;-71
2022/08/19 12:01:04;;;;;;;14.30;9.50;;;24.10;99.90;;;;;;5016629;28;20033;-71
2022/08/19 12:03:30;;;;;;;17.00;10.55;;;24.10;99.90;;;;;;5024545;28;20102;-71
2022/08/19 12:05:56;;;;;;;18.80;10.57;;;24.20;99.90;;;;;;5011114;28;20107;-71
2022/08/19 12:08:22;;;;;;;13.90;9.30;;;24.30;99.90;;;;;;5010937;28;20048;-71
2022/08/19 12:10:48;;;;;;;15.18;9.80;;;24.50;99.90;;;;;;5023585;28;20507;-71
2022/08/19 12:13:18;;;;;;;16.73;10.65;;;24.70;99.90;;;;;;5026894;28;20039;-71
2022/08/19 12:15:45;;;;;;;16.88;9.93;;;25.00;99.90;;;;;;5029213;28;20506;-71
2022/08/19 12:18:13;;;;;;;21.80;11.52;;;25.20;99.90;;;;;;5021818;28;20048;-72
2022/08/19 12:20:41;;;;;;;16.33;9.63;;;25.30;99.90;;;;;;5008541;28;20118;-71
2022/08/19 12:23:09;;;;;;;20.52;11.88;;;25.30;99.90;;;;;;5011051;28;20071;-72
2022/08/19 12:25:35;;;;;;;18.38;10.23;;;25.20;99.90;;;;;;5029654;28;20739;-72
2022/08/19 12:28:01;;;;;;;16.95;9.13;;;25.00;99.90;;;;;;5026157;28;20293;-71
2022/08/19 12:30:27;;;;;;;15.40;8.35;;;24.80;99.90;;;;;;4993865;28;20082;-71
2022/08/19 12:32:54;;;;;;;15.90;9.13;;;24.60;99.90;;;;;;5014295;28;20465;-71
2022/08/19 12:35:22;;;;;;;14.70;9.30;;;24.50;99.90;;;;;;5027339;28;20133;-71
2022/08/19 12:37:48;;;;;;;12.13;7.97;;;24.40;99.90;;;;;;5011829;28;20034;-71
2022/08/19 12:40:16;;;;;;;10.55;7.55;;;24.30;99.90;;;;;;5011409;28;20312;-71
2022/08/19 12:42:42;;;;;;;12.40;7.35;;;24.40;99.90;;;;;;5013337;28;20060;-72
2022/08/19 12:45:10;;;;;;;14.60;8.13;;;24.40;99.90;;;;;;5006232;28;20398;-71
2022/08/19 12:47:36;;;;;;;14.05;7.75;;;24.30;99.90;;;;;;5024980;28;20049;-71
2022/08/19 12:50:02;;;;;;;15.68;8.60;;;24.20;99.90;;;;;;5018389;28;20065;-71
2022/08/19 12:52:27;;;;;;;11.10;6.75;;;24.10;99.90;;;;;;5003576;28;20045;-71
2022/08/19 12:54:57;;;;;;;14.45;9.63;;;24.10;99.90;;;;;;5021018;28;20041;-71
2022/08/19 12:57:25;;;;;;;14.40;8.52;;;24.10;99.90;;;;;;5002672;28;20056;-70
2022/08/19 12:59:54;;;;;;;19.80;10.20;;;24.10;99.90;;;;;;5008333;28;20063;-71
2022/08/19 13:02:21;;;;;;;20.70;10.85;;;24.10;99.90;;;;;;5029510;28;20158;-71
2022/08/19 13:04:46;;;;;;;23.60;12.80;;;24.10;99.90;;;;;;5024829;28;20503;-71
2022/08/19 13:07:12;;;;;;;16.65;10.13;;;24.10;99.90;;;;;;5007124;28;20048;-71
2022/08/19 13:09:40;;;;;;;;;;;24.00;99.90;;;;;;4992952;28;20444;-71
2022/08/19 13:12:07;;;;;;;18.70;9.80;;;24.00;99.90;;;;;;5033384;28;19936;-71
2022/08/19 13:14:35;;;;;;;15.23;8.52;;;23.80;99.90;;;;;;5009596;28;20585;-71